KLM34AM EHAM-EGPH
Flight info
| Callsign | KLM34AM |
|---|---|
| Flight time | 1h 7m |
| Altitude | 36000 |
| Route | BERGI L602 SUPUR P1 GODOS DCT ROXAT DCT BAZNA DCT ANMAZ DCT AGPED |
| Aircraft | B738/M-SDE2E3FGHIRWXY/LB1 |
Departure
| Time | 2026-05-05 18:35 |
|---|---|
| Airport | Amsterdam Airport Schiphol (EHAM) |
Arrival
| Time | 2026-05-05 19:42 |
|---|---|
| Airport | Edinburgh Airport (EGPH) |
| Time | Latitude | Longitude | Altitude | Speed | Heading |
|---|---|---|---|---|---|
| 2026-05-05 17:56 | 52.30895 | 4.77239 | -3 ft | 0 kts | 3° |
| 2026-05-05 18:15 | 52.30883 | 4.77237 | -3 ft | 4 kts | 7° |
| 2026-05-05 18:15 | 52.30858 | 4.77225 | -3 ft | 4 kts | 39° |
| 2026-05-05 18:15 | 52.30845 | 4.77193 | -3 ft | 4 kts | 90° |
| 2026-05-05 18:16 | 52.30845 | 4.77186 | -3 ft | 1 kts | 93° |
| 2026-05-05 18:19 | 52.30844 | 4.77210 | -3 ft | 5 kts | 92° |
| 2026-05-05 18:20 | 52.30843 | 4.77283 | -3 ft | 7 kts | 94° |
| 2026-05-05 18:20 | 52.30837 | 4.77360 | -3 ft | 7 kts | 93° |
| 2026-05-05 18:20 | 52.30832 | 4.77437 | -3 ft | 7 kts | 114° |
| 2026-05-05 18:20 | 52.30790 | 4.77462 | -3 ft | 7 kts | 181° |
| 2026-05-05 18:21 | 52.30729 | 4.77458 | -3 ft | 10 kts | 183° |
| 2026-05-05 18:21 | 52.30658 | 4.77438 | -3 ft | 10 kts | 209° |
| 2026-05-05 18:21 | 52.30613 | 4.77349 | -3 ft | 10 kts | 238° |
| 2026-05-05 18:21 | 52.30574 | 4.77247 | -4 ft | 11 kts | 239° |
| 2026-05-05 18:22 | 52.30535 | 4.77144 | -4 ft | 11 kts | 238° |
| 2026-05-05 18:22 | 52.30493 | 4.77036 | -4 ft | 11 kts | 237° |
| 2026-05-05 18:22 | 52.30454 | 4.76929 | -4 ft | 11 kts | 236° |
| 2026-05-05 18:22 | 52.30413 | 4.76826 | -4 ft | 11 kts | 237° |
| 2026-05-05 18:23 | 52.30373 | 4.76723 | -3 ft | 11 kts | 239° |
| 2026-05-05 18:23 | 52.30336 | 4.76621 | -3 ft | 10 kts | 237° |
| 2026-05-05 18:23 | 52.30289 | 4.76502 | -3 ft | 18 kts | 237° |
| 2026-05-05 18:23 | 52.30220 | 4.76323 | -3 ft | 19 kts | 238° |
| 2026-05-05 18:24 | 52.30152 | 4.76147 | -3 ft | 18 kts | 239° |
| 2026-05-05 18:24 | 52.30087 | 4.75977 | -4 ft | 17 kts | 237° |
| 2026-05-05 18:24 | 52.30023 | 4.75813 | -4 ft | 17 kts | 238° |
| 2026-05-05 18:24 | 52.29963 | 4.75654 | -3 ft | 16 kts | 238° |
| 2026-05-05 18:25 | 52.29905 | 4.75503 | -3 ft | 15 kts | 237° |
| 2026-05-05 18:25 | 52.29869 | 4.75411 | -3 ft | 13 kts | 238° |
| 2026-05-05 18:25 | 52.29833 | 4.75284 | -3 ft | 9 kts | 263° |
| 2026-05-05 18:25 | 52.29851 | 4.75179 | -3 ft | 10 kts | 303° |
| 2026-05-05 18:26 | 52.29895 | 4.75095 | -3 ft | 10 kts | 311° |
| 2026-05-05 18:26 | 52.29945 | 4.75001 | -3 ft | 12 kts | 311° |
| 2026-05-05 18:26 | 52.29999 | 4.74903 | -3 ft | 11 kts | 313° |
| 2026-05-05 18:26 | 52.30051 | 4.74806 | -3 ft | 11 kts | 310° |
| 2026-05-05 18:27 | 52.30105 | 4.74703 | -3 ft | 12 kts | 311° |
| 2026-05-05 18:27 | 52.30162 | 4.74600 | -3 ft | 12 kts | 312° |
| 2026-05-05 18:27 | 52.30211 | 4.74509 | -3 ft | 10 kts | 310° |
| 2026-05-05 18:27 | 52.30254 | 4.74428 | -3 ft | 9 kts | 311° |
| 2026-05-05 18:28 | 52.30327 | 4.74284 | -3 ft | 7 kts | 300° |
| 2026-05-05 18:28 | 52.30342 | 4.74213 | -3 ft | 7 kts | 280° |
| 2026-05-05 18:28 | 52.30340 | 4.74139 | -3 ft | 6 kts | 261° |
| 2026-05-05 18:29 | 52.30326 | 4.74069 | -3 ft | 6 kts | 240° |
| 2026-05-05 18:29 | 52.30298 | 4.74016 | -3 ft | 6 kts | 219° |
| 2026-05-05 18:29 | 52.30263 | 4.73971 | -3 ft | 6 kts | 218° |
| 2026-05-05 18:29 | 52.30230 | 4.73928 | -4 ft | 3 kts | 219° |
| 2026-05-05 18:30 | 52.30223 | 4.73919 | -4 ft | 0 kts | 219° |
| 2026-05-05 18:30 | 52.30223 | 4.73918 | -4 ft | 0 kts | 219° |
| 2026-05-05 18:31 | 52.30221 | 4.73916 | -4 ft | 0 kts | 219° |
| 2026-05-05 18:31 | 52.30221 | 4.73915 | -4 ft | 0 kts | 219° |
| 2026-05-05 18:32 | 52.30196 | 4.73872 | -5 ft | 8 kts | 236° |
| 2026-05-05 18:32 | 52.30195 | 4.73781 | -4 ft | 7 kts | 296° |
| 2026-05-05 18:33 | 52.30220 | 4.73739 | -5 ft | 6 kts | 343° |
| 2026-05-05 18:33 | 52.30231 | 4.73739 | -6 ft | 0 kts | 2° |
| 2026-05-05 18:34 | 52.30259 | 4.73741 | -7 ft | 29 kts | 2° |
| 2026-05-05 18:34 | 52.30789 | 4.73789 | -1 ft | 120 kts | 3° |
| 2026-05-05 18:35 | 52.31867 | 4.73891 | 159 ft | 181 kts | 6° |
| 2026-05-05 18:35 | 52.33157 | 4.74040 | 788 ft | 174 kts | 6° |
| 2026-05-05 18:35 | 52.34252 | 4.74266 | 890 ft | 152 kts | 12° |
| 2026-05-05 18:35 | 52.35273 | 4.74411 | 727 ft | 143 kts | 348° |
| 2026-05-05 18:36 | 52.36147 | 4.73822 | 755 ft | 142 kts | 343° |
| 2026-05-05 18:36 | 52.37111 | 4.73183 | 1579 ft | 151 kts | 343° |
| 2026-05-05 18:36 | 52.38151 | 4.72482 | 2338 ft | 178 kts | 343° |
| 2026-05-05 18:36 | 52.39407 | 4.71667 | 2622 ft | 208 kts | 343° |
| 2026-05-05 18:37 | 52.40849 | 4.70770 | 2847 ft | 235 kts | 343° |
| 2026-05-05 18:37 | 52.42424 | 4.69815 | 3466 ft | 245 kts | 343° |
| 2026-05-05 18:37 | 52.44036 | 4.68845 | 4299 ft | 247 kts | 343° |
| 2026-05-05 18:37 | 52.45670 | 4.67877 | 5068 ft | 251 kts | 343° |
| 2026-05-05 18:38 | 52.47330 | 4.66920 | 5889 ft | 253 kts | 343° |
| 2026-05-05 18:38 | 52.49014 | 4.65997 | 6587 ft | 260 kts | 343° |
| 2026-05-05 18:38 | 52.50725 | 4.65109 | 7269 ft | 264 kts | 343° |
| 2026-05-05 18:38 | 52.52402 | 4.63794 | 7848 ft | 274 kts | 320° |
| 2026-05-05 18:39 | 52.53743 | 4.61580 | 8661 ft | 275 kts | 314° |
| 2026-05-05 18:39 | 52.55063 | 4.59266 | 9351 ft | 280 kts | 313° |
| 2026-05-05 18:39 | 52.56419 | 4.56921 | 10007 ft | 286 kts | 314° |
| 2026-05-05 18:39 | 52.57837 | 4.54505 | 10347 ft | 304 kts | 314° |
| 2026-05-05 18:40 | 52.59366 | 4.51935 | 10525 ft | 325 kts | 314° |
| 2026-05-05 18:40 | 52.61001 | 4.49217 | 10865 ft | 340 kts | 314° |
| 2026-05-05 18:40 | 52.62683 | 4.46442 | 11453 ft | 346 kts | 314° |
| 2026-05-05 18:40 | 52.64388 | 4.43642 | 12206 ft | 347 kts | 315° |
| 2026-05-05 18:41 | 52.66113 | 4.40817 | 12854 ft | 353 kts | 315° |
| 2026-05-05 18:41 | 52.67856 | 4.37966 | 13651 ft | 354 kts | 314° |
| 2026-05-05 18:41 | 52.69611 | 4.35097 | 14331 ft | 357 kts | 314° |
| 2026-05-05 18:41 | 52.71386 | 4.32193 | 14996 ft | 361 kts | 314° |
| 2026-05-05 18:42 | 52.73176 | 4.29260 | 15627 ft | 365 kts | 313° |
| 2026-05-05 18:42 | 52.74990 | 4.26286 | 16247 ft | 371 kts | 314° |
| 2026-05-05 18:42 | 52.76827 | 4.23269 | 16938 ft | 373 kts | 314° |
| 2026-05-05 18:42 | 52.78670 | 4.20241 | 17602 ft | 377 kts | 314° |
| 2026-05-05 18:43 | 52.80550 | 4.17148 | 18133 ft | 384 kts | 313° |
| 2026-05-05 18:43 | 52.82447 | 4.14022 | 18744 ft | 386 kts | 313° |
| 2026-05-05 18:43 | 52.84353 | 4.10877 | 19309 ft | 389 kts | 313° |
| 2026-05-05 18:43 | 52.86280 | 4.07695 | 19839 ft | 393 kts | 312° |
| 2026-05-05 18:44 | 52.88230 | 4.04470 | 20353 ft | 398 kts | 313° |
| 2026-05-05 18:44 | 52.90197 | 4.01212 | 20872 ft | 402 kts | 313° |
| 2026-05-05 18:44 | 52.92182 | 3.97916 | 21384 ft | 406 kts | 312° |
| 2026-05-05 18:44 | 52.94185 | 3.94588 | 21883 ft | 410 kts | 313° |
| 2026-05-05 18:45 | 52.96177 | 3.91279 | 22540 ft | 409 kts | 313° |
| 2026-05-05 18:45 | 52.98219 | 3.87881 | 23106 ft | 412 kts | 313° |
| 2026-05-05 18:45 | 53.00225 | 3.84539 | 23539 ft | 416 kts | 313° |
| 2026-05-05 18:45 | 53.02278 | 3.81111 | 23921 ft | 420 kts | 313° |
| 2026-05-05 18:46 | 53.04339 | 3.77663 | 24350 ft | 422 kts | 313° |
| 2026-05-05 18:46 | 53.06418 | 3.74182 | 24775 ft | 424 kts | 312° |
| 2026-05-05 18:46 | 53.08504 | 3.70682 | 25188 ft | 427 kts | 312° |
| 2026-05-05 18:46 | 53.10603 | 3.67157 | 25570 ft | 430 kts | 312° |
| 2026-05-05 18:47 | 53.12714 | 3.63606 | 25953 ft | 432 kts | 312° |
| 2026-05-05 18:47 | 53.14836 | 3.60030 | 26330 ft | 435 kts | 312° |
| 2026-05-05 18:47 | 53.16967 | 3.56433 | 26714 ft | 437 kts | 312° |
| 2026-05-05 18:47 | 53.19107 | 3.52818 | 27102 ft | 439 kts | 311° |
| 2026-05-05 18:48 | 53.21258 | 3.49179 | 27496 ft | 441 kts | 311° |
| 2026-05-05 18:48 | 53.23413 | 3.45528 | 27908 ft | 442 kts | 311° |
| 2026-05-05 18:48 | 53.25478 | 3.41727 | 28219 ft | 442 kts | 304° |
| 2026-05-05 18:48 | 53.27210 | 3.37494 | 28523 ft | 442 kts | 299° |
| 2026-05-05 18:49 | 53.28845 | 3.33136 | 28847 ft | 444 kts | 298° |
| 2026-05-05 18:49 | 53.30478 | 3.28729 | 29152 ft | 446 kts | 298° |
| 2026-05-05 18:49 | 53.32105 | 3.24375 | 29472 ft | 449 kts | 298° |
| 2026-05-05 18:49 | 53.33782 | 3.19944 | 29780 ft | 451 kts | 298° |
| 2026-05-05 18:50 | 53.35474 | 3.15511 | 30055 ft | 453 kts | 299° |
| 2026-05-05 18:50 | 53.37181 | 3.11058 | 30372 ft | 453 kts | 299° |
| 2026-05-05 18:50 | 53.38878 | 3.06627 | 30796 ft | 450 kts | 299° |
| 2026-05-05 18:50 | 53.40557 | 3.02229 | 31302 ft | 446 kts | 299° |
| 2026-05-05 18:51 | 53.42313 | 2.97956 | 31665 ft | 447 kts | 304° |
| 2026-05-05 18:51 | 53.44298 | 2.93917 | 31943 ft | 450 kts | 307° |
| 2026-05-05 18:51 | 53.46357 | 2.89952 | 32237 ft | 450 kts | 308° |
| 2026-05-05 18:51 | 53.48429 | 2.86021 | 32590 ft | 449 kts | 308° |
| 2026-05-05 18:52 | 53.49798 | 2.83419 | 32835 ft | 448 kts | 307° |
| 2026-05-05 18:52 | 53.52516 | 2.78202 | 33293 ft | 446 kts | 307° |
| 2026-05-05 18:52 | 53.53888 | 2.75540 | 33496 ft | 446 kts | 307° |
| 2026-05-05 18:52 | 53.56567 | 2.70300 | 33912 ft | 445 kts | 307° |
| 2026-05-05 18:53 | 53.57927 | 2.67625 | 34121 ft | 445 kts | 307° |
| 2026-05-05 18:53 | 53.59934 | 2.63662 | 34359 ft | 445 kts | 307° |
| 2026-05-05 18:53 | 53.61943 | 2.59686 | 34579 ft | 445 kts | 307° |
| 2026-05-05 18:53 | 53.63920 | 2.55766 | 34842 ft | 444 kts | 307° |
| 2026-05-05 18:54 | 53.65917 | 2.51801 | 35107 ft | 444 kts | 307° |
| 2026-05-05 18:54 | 53.67917 | 2.47825 | 35327 ft | 444 kts | 307° |
| 2026-05-05 18:54 | 53.69911 | 2.43854 | 35530 ft | 444 kts | 307° |
| 2026-05-05 18:54 | 53.71910 | 2.39868 | 35767 ft | 444 kts | 307° |
| 2026-05-05 18:55 | 53.73906 | 2.35883 | 35975 ft | 444 kts | 307° |
| 2026-05-05 18:55 | 53.75910 | 2.31872 | 35952 ft | 447 kts | 307° |
| 2026-05-05 18:55 | 53.79902 | 2.23870 | 35958 ft | 443 kts | 307° |
| 2026-05-05 18:56 | 53.83858 | 2.15916 | 35964 ft | 440 kts | 307° |
| 2026-05-05 18:56 | 53.87757 | 2.08049 | 35981 ft | 438 kts | 307° |
| 2026-05-05 18:57 | 53.91661 | 2.00143 | 35977 ft | 437 kts | 307° |
| 2026-05-05 18:57 | 53.95567 | 1.92210 | 35977 ft | 438 kts | 307° |
| 2026-05-05 18:58 | 53.99479 | 1.84238 | 35991 ft | 440 kts | 307° |
| 2026-05-05 18:58 | 54.03400 | 1.76222 | 35984 ft | 442 kts | 307° |
| 2026-05-05 18:59 | 54.07341 | 1.68140 | 35988 ft | 444 kts | 307° |
| 2026-05-05 18:59 | 54.11266 | 1.60063 | 35986 ft | 446 kts | 307° |
| 2026-05-05 19:00 | 54.15234 | 1.51875 | 35982 ft | 448 kts | 307° |
| 2026-05-05 19:00 | 54.19060 | 1.43493 | 35982 ft | 447 kts | 298° |
| 2026-05-05 19:01 | 54.21865 | 1.34051 | 35987 ft | 445 kts | 293° |
| 2026-05-05 19:01 | 54.24533 | 1.24499 | 35999 ft | 445 kts | 293° |
| 2026-05-05 19:02 | 54.27222 | 1.14973 | 35994 ft | 444 kts | 294° |
| 2026-05-05 19:02 | 54.29928 | 1.05470 | 35998 ft | 442 kts | 294° |
| 2026-05-05 19:03 | 54.32603 | 0.96072 | 35987 ft | 440 kts | 293° |
| 2026-05-05 19:03 | 54.35276 | 0.86641 | 36001 ft | 438 kts | 293° |
| 2026-05-05 19:04 | 54.37928 | 0.77251 | 35997 ft | 436 kts | 293° |
| 2026-05-05 19:04 | 54.40554 | 0.67890 | 36011 ft | 435 kts | 293° |
| 2026-05-05 19:05 | 54.43174 | 0.58537 | 36020 ft | 436 kts | 294° |
| 2026-05-05 19:05 | 54.45928 | 0.49146 | 36058 ft | 442 kts | 293° |
| 2026-05-05 19:06 | 54.48502 | 0.39567 | 35996 ft | 440 kts | 292° |
| 2026-05-05 19:06 | 54.51054 | 0.30147 | 36017 ft | 429 kts | 292° |
| 2026-05-05 19:07 | 54.53586 | 0.20940 | 36031 ft | 428 kts | 292° |
| 2026-05-05 19:07 | 54.56142 | 0.11646 | 36033 ft | 430 kts | 293° |
| 2026-05-05 19:08 | 54.58761 | 0.02358 | 36032 ft | 431 kts | 294° |
| 2026-05-05 19:08 | 54.61401 | -0.06955 | 36041 ft | 432 kts | 294° |
| 2026-05-05 19:09 | 54.64036 | -0.16301 | 36035 ft | 433 kts | 293° |
| 2026-05-05 19:09 | 54.66645 | -0.25618 | 36038 ft | 433 kts | 293° |
| 2026-05-05 19:10 | 54.69256 | -0.34988 | 36037 ft | 432 kts | 293° |
| 2026-05-05 19:10 | 54.71854 | -0.44353 | 36045 ft | 431 kts | 293° |
| 2026-05-05 19:11 | 54.74441 | -0.53714 | 36045 ft | 431 kts | 293° |
| 2026-05-05 19:11 | 54.77014 | -0.63063 | 36057 ft | 429 kts | 292° |
| 2026-05-05 19:12 | 54.78297 | -0.67739 | 35891 ft | 432 kts | 292° |
| 2026-05-05 19:12 | 54.79589 | -0.72456 | 35477 ft | 431 kts | 292° |
| 2026-05-05 19:12 | 54.80863 | -0.77114 | 35021 ft | 426 kts | 292° |
| 2026-05-05 19:12 | 54.82126 | -0.81739 | 34603 ft | 422 kts | 292° |
| 2026-05-05 19:13 | 54.83373 | -0.86317 | 34180 ft | 418 kts | 292° |
| 2026-05-05 19:13 | 54.84605 | -0.90854 | 33716 ft | 414 kts | 292° |
| 2026-05-05 19:13 | 54.85824 | -0.95348 | 33260 ft | 410 kts | 291° |
| 2026-05-05 19:13 | 54.87029 | -0.99802 | 32851 ft | 405 kts | 291° |
| 2026-05-05 19:14 | 54.88220 | -1.04210 | 32429 ft | 401 kts | 291° |
| 2026-05-05 19:14 | 54.89396 | -1.08572 | 32018 ft | 397 kts | 291° |
| 2026-05-05 19:14 | 54.90560 | -1.12899 | 31606 ft | 393 kts | 291° |
| 2026-05-05 19:14 | 54.91709 | -1.17181 | 31224 ft | 389 kts | 291° |
| 2026-05-05 19:15 | 54.92848 | -1.21430 | 30828 ft | 386 kts | 291° |
| 2026-05-05 19:15 | 54.93978 | -1.25654 | 30450 ft | 383 kts | 291° |
| 2026-05-05 19:15 | 54.95096 | -1.29844 | 30045 ft | 380 kts | 291° |
| 2026-05-05 19:15 | 54.96191 | -1.33953 | 29621 ft | 376 kts | 291° |
| 2026-05-05 19:16 | 54.97285 | -1.38062 | 29235 ft | 372 kts | 291° |
| 2026-05-05 19:16 | 54.98363 | -1.42122 | 28838 ft | 368 kts | 291° |
| 2026-05-05 19:16 | 54.99431 | -1.46150 | 28442 ft | 364 kts | 291° |
| 2026-05-05 19:16 | 55.00486 | -1.50138 | 28079 ft | 360 kts | 291° |
| 2026-05-05 19:17 | 55.01529 | -1.54090 | 27668 ft | 358 kts | 291° |
| 2026-05-05 19:17 | 55.02563 | -1.58011 | 27293 ft | 354 kts | 291° |
| 2026-05-05 19:17 | 55.03585 | -1.61897 | 26905 ft | 351 kts | 291° |
| 2026-05-05 19:17 | 55.04598 | -1.65751 | 26528 ft | 349 kts | 292° |
| 2026-05-05 19:18 | 55.05605 | -1.69593 | 26170 ft | 346 kts | 292° |
| 2026-05-05 19:18 | 55.06597 | -1.73380 | 26133 ft | 343 kts | 292° |
| 2026-05-05 19:18 | 55.07584 | -1.77157 | 26100 ft | 340 kts | 292° |
| 2026-05-05 19:18 | 55.08548 | -1.80846 | 26093 ft | 328 kts | 292° |
| 2026-05-05 19:19 | 55.09465 | -1.84361 | 26080 ft | 316 kts | 292° |
| 2026-05-05 19:19 | 55.10356 | -1.87779 | 26073 ft | 303 kts | 292° |
| 2026-05-05 19:19 | 55.11211 | -1.91067 | 26068 ft | 290 kts | 292° |
| 2026-05-05 19:19 | 55.12028 | -1.94215 | 26073 ft | 278 kts | 292° |
| 2026-05-05 19:20 | 55.12835 | -1.97246 | 26078 ft | 276 kts | 293° |
| 2026-05-05 19:20 | 55.13681 | -2.00319 | 26113 ft | 286 kts | 293° |
| 2026-05-05 19:20 | 55.14561 | -2.03500 | 26119 ft | 294 kts | 293° |
| 2026-05-05 19:20 | 55.15458 | -2.06737 | 26102 ft | 295 kts | 293° |
| 2026-05-05 19:21 | 55.16347 | -2.09951 | 26085 ft | 293 kts | 293° |
| 2026-05-05 19:21 | 55.17229 | -2.13145 | 25920 ft | 290 kts | 293° |
| 2026-05-05 19:21 | 55.18103 | -2.16320 | 25599 ft | 290 kts | 293° |
| 2026-05-05 19:21 | 55.18981 | -2.19519 | 25171 ft | 293 kts | 293° |
| 2026-05-05 19:22 | 55.19871 | -2.22767 | 24549 ft | 302 kts | 294° |
| 2026-05-05 19:22 | 55.20814 | -2.26222 | 23389 ft | 328 kts | 294° |
| 2026-05-05 19:22 | 55.21829 | -2.29943 | 22413 ft | 344 kts | 294° |
| 2026-05-05 19:22 | 55.22850 | -2.33689 | 21939 ft | 344 kts | 294° |
| 2026-05-05 19:23 | 55.23885 | -2.37484 | 21627 ft | 338 kts | 294° |
| 2026-05-05 19:23 | 55.24892 | -2.41187 | 21314 ft | 334 kts | 294° |
| 2026-05-05 19:23 | 55.25887 | -2.44849 | 20916 ft | 332 kts | 294° |
| 2026-05-05 19:23 | 55.26875 | -2.48497 | 20513 ft | 330 kts | 294° |
| 2026-05-05 19:24 | 55.27858 | -2.52132 | 20130 ft | 328 kts | 294° |
| 2026-05-05 19:24 | 55.28832 | -2.55741 | 19766 ft | 326 kts | 294° |
| 2026-05-05 19:24 | 55.29797 | -2.59319 | 19395 ft | 324 kts | 294° |
| 2026-05-05 19:24 | 55.30759 | -2.62895 | 19029 ft | 322 kts | 294° |
| 2026-05-05 19:25 | 55.31699 | -2.66394 | 18664 ft | 320 kts | 294° |
| 2026-05-05 19:25 | 55.32658 | -2.69967 | 18308 ft | 318 kts | 294° |
| 2026-05-05 19:25 | 55.33585 | -2.73430 | 17911 ft | 317 kts | 294° |
| 2026-05-05 19:25 | 55.34520 | -2.76926 | 17517 ft | 315 kts | 294° |
| 2026-05-05 19:26 | 55.35447 | -2.80400 | 17148 ft | 312 kts | 294° |
| 2026-05-05 19:26 | 55.36369 | -2.83857 | 16771 ft | 311 kts | 294° |
| 2026-05-05 19:26 | 55.37280 | -2.87282 | 16397 ft | 309 kts | 294° |
| 2026-05-05 19:26 | 55.38190 | -2.90703 | 16020 ft | 307 kts | 294° |
| 2026-05-05 19:27 | 55.39091 | -2.94100 | 15654 ft | 305 kts | 294° |
| 2026-05-05 19:27 | 55.39975 | -2.97437 | 15296 ft | 303 kts | 294° |
| 2026-05-05 19:27 | 55.40865 | -3.00797 | 14937 ft | 302 kts | 294° |
| 2026-05-05 19:27 | 55.41747 | -3.04136 | 14587 ft | 300 kts | 294° |
| 2026-05-05 19:28 | 55.42625 | -3.07465 | 14244 ft | 299 kts | 294° |
| 2026-05-05 19:28 | 55.43498 | -3.10777 | 13902 ft | 298 kts | 294° |
| 2026-05-05 19:28 | 55.44364 | -3.14072 | 13521 ft | 296 kts | 294° |
| 2026-05-05 19:28 | 55.45221 | -3.17334 | 13300 ft | 288 kts | 294° |
| 2026-05-05 19:29 | 55.46046 | -3.20481 | 13235 ft | 278 kts | 294° |
| 2026-05-05 19:29 | 55.46841 | -3.23514 | 13150 ft | 267 kts | 294° |
| 2026-05-05 19:29 | 55.47608 | -3.26443 | 13021 ft | 259 kts | 294° |
| 2026-05-05 19:29 | 55.48354 | -3.29299 | 12886 ft | 253 kts | 294° |
| 2026-05-05 19:30 | 55.49077 | -3.32070 | 12780 ft | 244 kts | 295° |
| 2026-05-05 19:30 | 55.49792 | -3.34733 | 12664 ft | 236 kts | 300° |
| 2026-05-05 19:30 | 55.50898 | -3.36819 | 12482 ft | 233 kts | 319° |
| 2026-05-05 19:30 | 55.52154 | -3.38609 | 12236 ft | 232 kts | 319° |
| 2026-05-05 19:31 | 55.53402 | -3.40402 | 11972 ft | 231 kts | 319° |
| 2026-05-05 19:31 | 55.54630 | -3.42177 | 11719 ft | 230 kts | 319° |
| 2026-05-05 19:31 | 55.55864 | -3.43966 | 11446 ft | 229 kts | 319° |
| 2026-05-05 19:31 | 55.57095 | -3.45758 | 11201 ft | 229 kts | 319° |
| 2026-05-05 19:32 | 55.58319 | -3.47544 | 10955 ft | 228 kts | 319° |
| 2026-05-05 19:32 | 55.59540 | -3.49326 | 10699 ft | 227 kts | 319° |
| 2026-05-05 19:32 | 55.60755 | -3.51104 | 10459 ft | 226 kts | 319° |
| 2026-05-05 19:32 | 55.61964 | -3.52875 | 10215 ft | 225 kts | 319° |
| 2026-05-05 19:33 | 55.63168 | -3.54641 | 9956 ft | 225 kts | 319° |
| 2026-05-05 19:33 | 55.64362 | -3.56411 | 9700 ft | 223 kts | 317° |
| 2026-05-05 19:33 | 55.65529 | -3.58227 | 9411 ft | 223 kts | 317° |
| 2026-05-05 19:33 | 55.66688 | -3.60046 | 9165 ft | 222 kts | 317° |
| 2026-05-05 19:34 | 55.67842 | -3.61857 | 8899 ft | 221 kts | 317° |
| 2026-05-05 19:34 | 55.68987 | -3.63651 | 8688 ft | 218 kts | 317° |
| 2026-05-05 19:34 | 55.70161 | -3.65403 | 8373 ft | 220 kts | 319° |
| 2026-05-05 19:35 | 55.72492 | -3.68797 | 7944 ft | 215 kts | 319° |
| 2026-05-05 19:35 | 55.73654 | -3.70496 | 7630 ft | 218 kts | 320° |
| 2026-05-05 19:35 | 55.74838 | -3.72230 | 7313 ft | 220 kts | 320° |
| 2026-05-05 19:35 | 55.75970 | -3.73971 | 7085 ft | 219 kts | 312° |
| 2026-05-05 19:36 | 55.77021 | -3.75981 | 6639 ft | 225 kts | 320° |
| 2026-05-05 19:36 | 55.78259 | -3.77696 | 6188 ft | 227 kts | 328° |
| 2026-05-05 19:36 | 55.79764 | -3.78471 | 5629 ft | 231 kts | 6° |
| 2026-05-05 19:36 | 55.81179 | -3.77312 | 5304 ft | 226 kts | 45° |
| 2026-05-05 19:37 | 55.82151 | -3.75146 | 5014 ft | 223 kts | 54° |
| 2026-05-05 19:37 | 55.83018 | -3.72866 | 4710 ft | 223 kts | 57° |
| 2026-05-05 19:37 | 55.83831 | -3.70511 | 4388 ft | 223 kts | 59° |
| 2026-05-05 19:37 | 55.84623 | -3.68147 | 4069 ft | 219 kts | 59° |
| 2026-05-05 19:38 | 55.85380 | -3.65879 | 3762 ft | 206 kts | 59° |
| 2026-05-05 19:38 | 55.86081 | -3.63785 | 3504 ft | 189 kts | 60° |
| 2026-05-05 19:38 | 55.86521 | -3.62472 | 3338 ft | 182 kts | 60° |
| 2026-05-05 19:38 | 55.87171 | -3.60530 | 3084 ft | 184 kts | 60° |
| 2026-05-05 19:39 | 55.87837 | -3.58546 | 2823 ft | 188 kts | 61° |
| 2026-05-05 19:39 | 55.88511 | -3.56537 | 2558 ft | 188 kts | 61° |
| 2026-05-05 19:39 | 55.89158 | -3.54609 | 2296 ft | 174 kts | 62° |
| 2026-05-05 19:39 | 55.89757 | -3.52830 | 2069 ft | 158 kts | 62° |
| 2026-05-05 19:40 | 55.90287 | -3.51253 | 1833 ft | 140 kts | 62° |
| 2026-05-05 19:40 | 55.90759 | -3.49846 | 1671 ft | 132 kts | 63° |
| 2026-05-05 19:40 | 55.91233 | -3.48433 | 1476 ft | 132 kts | 63° |
| 2026-05-05 19:40 | 55.91702 | -3.47038 | 1276 ft | 131 kts | 62° |
| 2026-05-05 19:41 | 55.92168 | -3.45653 | 1097 ft | 131 kts | 62° |
| 2026-05-05 19:41 | 55.92641 | -3.44270 | 916 ft | 133 kts | 62° |
| 2026-05-05 19:41 | 55.93117 | -3.42845 | 699 ft | 134 kts | 62° |
| 2026-05-05 19:41 | 55.93596 | -3.41458 | 547 ft | 129 kts | 59° |
| 2026-05-05 19:42 | 55.94046 | -3.40106 | 300 ft | 125 kts | 61° |
| 2026-05-05 19:42 | 55.94469 | -3.38811 | 137 ft | 119 kts | 60° |
| 2026-05-05 19:42 | 55.94859 | -3.37664 | 113 ft | 85 kts | 59° |
| 2026-05-05 19:42 | 55.95061 | -3.37066 | 112 ft | 40 kts | 59° |
| 2026-05-05 19:43 | 55.95170 | -3.36738 | 113 ft | 16 kts | 60° |
| 2026-05-05 19:43 | 55.95230 | -3.36568 | 111 ft | 17 kts | 58° |
| 2026-05-05 19:43 | 55.95252 | -3.36428 | 110 ft | 10 kts | 119° |
| 2026-05-05 19:43 | 55.95198 | -3.36356 | 113 ft | 7 kts | 149° |
| 2026-05-05 19:44 | 55.95188 | -3.36347 | 114 ft | 0 kts | 151° |
| 2026-05-05 19:44 | 55.95180 | -3.36339 | 114 ft | 3 kts | 151° |
| 2026-05-05 19:44 | 55.95150 | -3.36311 | 114 ft | 6 kts | 161° |
| 2026-05-05 19:45 | 55.95118 | -3.36338 | 113 ft | 6 kts | 234° |
| 2026-05-05 19:45 | 55.95094 | -3.36389 | 114 ft | 5 kts | 217° |
| 2026-05-05 19:45 | 55.95068 | -3.36397 | 115 ft | 0 kts | 169° |
| 2026-05-05 19:46 | 55.95065 | -3.36396 | 115 ft | 2 kts | 169° |
| 2026-05-05 19:46 | 55.95043 | -3.36388 | 115 ft | 5 kts | 170° |
| 2026-05-05 19:46 | 55.95013 | -3.36404 | 113 ft | 4 kts | 224° |
| 2026-05-05 19:47 | 55.94993 | -3.36460 | 115 ft | 3 kts | 238° |
| 2026-05-05 19:47 | 55.94974 | -3.36484 | 114 ft | 4 kts | 188° |
| 2026-05-05 19:47 | 55.94951 | -3.36464 | 112 ft | 3 kts | 147° |
| 2026-05-05 19:47 | 55.94937 | -3.36447 | 112 ft | 2 kts | 148° |
| 2026-05-05 19:48 | 55.94926 | -3.36436 | 114 ft | 1 kts | 149° |
| 2026-05-05 19:48 | 55.94921 | -3.36431 | 114 ft | 0 kts | 148° |